createdAt,value
2018-10-04T00:02:11.128Z,3.08
2018-10-04T00:04:39.557Z,2.20
2018-10-04T00:07:07.997Z,2.95
2018-10-04T00:09:36.133Z,2.02
2018-10-04T00:12:04.561Z,2.30
2018-10-04T00:14:32.977Z,1.98
2018-10-04T00:17:01.465Z,3.10
2018-10-04T00:19:29.936Z,2.62
2018-10-04T00:21:58.345Z,4.12
2018-10-04T00:24:26.811Z,3.37
2018-10-04T00:26:55.230Z,3.27
2018-10-04T00:29:23.640Z,2.27
2018-10-04T00:31:51.770Z,1.70
2018-10-04T00:34:20.166Z,3.80
2018-10-04T00:36:48.613Z,2.65
2018-10-04T00:39:17.032Z,2.62
2018-10-04T00:41:45.516Z,3.08
2018-10-04T00:44:13.926Z,1.87
2018-10-04T00:46:42.357Z,2.47
2018-10-04T00:49:10.575Z,2.37
2018-10-04T00:51:39.066Z,3.52
2018-10-04T00:54:07.561Z,4.22
2018-10-04T00:56:36.025Z,3.10
2018-10-04T00:59:04.158Z,3.08
2018-10-04T01:01:32.632Z,3.05
2018-10-04T01:04:01.031Z,2.50
2018-10-04T01:06:29.148Z,2.37
2018-10-04T01:08:57.580Z,2.52
2018-10-04T01:11:26.059Z,2.27
2018-10-04T01:13:54.165Z,2.53
2018-10-04T01:16:22.616Z,3.27
2018-10-04T01:18:57.689Z,4.00
2018-10-04T01:21:26.156Z,2.60
2018-10-04T01:28:42.146Z,2.25
2018-10-04T01:31:10.290Z,2.90
2018-10-04T01:33:38.692Z,4.67
2018-10-04T01:36:07.192Z,2.87
2018-10-04T01:38:35.777Z,4.12
2018-10-04T01:41:04.249Z,2.70
2018-10-04T01:43:32.664Z,3.75
2018-10-04T01:46:01.100Z,3.53
2018-10-04T01:48:29.514Z,2.60
2018-10-04T01:50:57.945Z,2.30
2018-10-04T01:53:26.493Z,3.30
2018-10-04T01:55:54.984Z,2.33
2018-10-04T01:58:24.052Z,3.20
2018-10-04T02:00:52.517Z,3.70
2018-10-04T02:03:21.093Z,2.53
2018-10-04T02:05:49.497Z,2.67
2018-10-04T02:08:17.953Z,3.20
2018-10-04T02:10:46.353Z,7.50
2018-10-04T02:13:14.773Z,2.77
2018-10-04T02:15:43.206Z,3.20
2018-10-04T02:18:11.737Z,2.30
2018-10-04T02:20:40.152Z,3.43
2018-10-04T02:23:08.844Z,3.63
2018-10-04T02:25:36.928Z,3.87
2018-10-04T02:28:05.285Z,3.03
2018-10-04T02:30:33.697Z,2.87
2018-10-04T02:33:02.139Z,3.87
2018-10-04T02:35:30.620Z,4.47
2018-10-04T02:37:59.471Z,2.63
2018-10-04T02:40:27.857Z,3.07
2018-10-04T02:42:56.316Z,3.77
2018-10-04T02:45:24.442Z,3.20
2018-10-04T02:47:52.973Z,2.83
2018-10-04T02:50:21.456Z,4.67
2018-10-04T02:52:49.918Z,4.73
2018-10-04T02:55:23.686Z,2.87
2018-10-04T02:57:52.141Z,3.97
2018-10-04T03:00:20.525Z,3.33
2018-10-04T03:02:48.665Z,2.73
2018-10-04T03:05:17.081Z,4.43
2018-10-04T03:07:45.530Z,2.83
2018-10-04T03:10:13.656Z,4.40
2018-10-04T03:12:42.129Z,3.83
2018-10-04T03:15:10.380Z,4.23
2018-10-04T03:17:38.837Z,4.30
2018-10-04T03:20:07.326Z,4.80
2018-10-04T03:22:35.708Z,3.10
2018-10-04T03:25:04.271Z,3.83
2018-10-04T03:27:32.702Z,2.87
2018-10-04T03:30:01.192Z,2.97
2018-10-04T03:32:29.614Z,2.47
2018-10-04T03:34:57.720Z,4.47
2018-10-04T03:37:25.865Z,2.63
2018-10-04T03:39:54.258Z,4.37
2018-10-04T03:42:22.683Z,2.57
2018-10-04T03:44:51.105Z,3.27
2018-10-04T03:47:19.532Z,4.33
2018-10-04T03:49:47.989Z,2.30
2018-10-04T03:52:16.394Z,3.40
2018-10-04T03:54:44.841Z,3.43
2018-10-04T03:57:13.276Z,3.27
2018-10-04T03:59:41.693Z,2.87
2018-10-04T04:02:10.113Z,3.93
2018-10-04T04:04:38.558Z,2.80
2018-10-04T04:07:07.182Z,5.03
2018-10-04T04:09:35.611Z,3.00
2018-10-04T04:12:04.033Z,2.20
2018-10-04T04:14:32.457Z,2.77
2018-10-04T04:17:00.585Z,2.87
2018-10-04T04:19:29.053Z,4.03
2018-10-04T04:21:57.520Z,2.67
2018-10-04T04:24:25.944Z,2.50
2018-10-04T04:26:54.336Z,2.17
2018-10-04T04:29:22.853Z,3.23
2018-10-04T04:31:51.309Z,2.27
2018-10-04T04:34:19.832Z,2.67
2018-10-04T04:36:48.220Z,3.83
2018-10-04T04:39:16.666Z,2.73
2018-10-04T04:41:45.242Z,2.70
2018-10-04T04:44:13.684Z,3.23
2018-10-04T04:46:42.291Z,3.07
2018-10-04T04:49:10.605Z,2.07
2018-10-04T04:51:39.001Z,3.10
2018-10-04T04:54:08.259Z,6.77
2018-10-04T04:56:36.681Z,2.77
2018-10-04T04:59:04.796Z,4.80
2018-10-04T05:01:33.197Z,2.80
2018-10-04T05:04:01.634Z,2.83
2018-10-04T05:06:30.117Z,3.37
2018-10-04T05:08:58.561Z,5.10
2018-10-04T05:11:26.993Z,4.60
2018-10-04T05:13:55.448Z,3.70
2018-10-04T05:16:23.880Z,7.17
2018-10-04T05:18:52.409Z,2.53
2018-10-04T05:21:21.010Z,4.90
2018-10-04T05:23:49.422Z,3.40
2018-10-04T05:26:17.540Z,5.60
2018-10-04T05:28:45.926Z,3.07
2018-10-04T05:31:14.363Z,2.00
2018-10-04T05:33:42.764Z,4.30
2018-10-04T05:36:11.253Z,2.07
2018-10-04T05:38:39.637Z,3.30
2018-10-04T05:41:08.065Z,2.30
2018-10-04T05:43:37.104Z,3.10
2018-10-04T05:46:05.544Z,2.73
2018-10-04T05:48:33.924Z,8.30
2018-10-04T05:51:02.618Z,4.80
2018-10-04T05:53:31.083Z,4.57
2018-10-04T05:55:59.571Z,4.43
2018-10-04T05:58:28.295Z,2.83
2018-10-04T06:00:57.069Z,5.70
2018-10-04T06:03:25.452Z,2.53
2018-10-04T06:05:53.873Z,2.63
2018-10-04T06:08:22.365Z,5.27
2018-10-04T06:10:52.300Z,6.47
2018-10-04T06:13:20.393Z,4.50
2018-10-04T06:15:48.817Z,2.33
2018-10-04T06:18:17.714Z,6.30
2018-10-04T06:20:46.234Z,6.50
2018-10-04T06:23:15.521Z,4.07
2018-10-04T06:25:43.953Z,5.62
2018-10-04T06:28:12.800Z,2.58
2018-10-04T06:30:41.346Z,2.70
2018-10-04T06:33:09.789Z,3.12
2018-10-04T06:35:38.237Z,4.83
2018-10-04T06:38:06.630Z,2.47
2018-10-04T06:40:35.065Z,2.65
2018-10-04T06:43:03.525Z,2.08
2018-10-04T06:45:32.229Z,3.52
2018-10-04T06:48:01.953Z,4.55
2018-10-04T06:50:30.538Z,2.00
2018-10-04T06:52:58.944Z,2.45
2018-10-04T06:55:28.068Z,2.35
2018-10-04T06:57:56.222Z,3.15
2018-10-04T07:00:24.593Z,2.77
2018-10-04T07:02:52.985Z,4.35
2018-10-04T07:05:21.469Z,4.70
2018-10-04T07:07:49.908Z,5.33
2018-10-04T07:10:18.381Z,7.80
2018-10-04T07:12:46.782Z,3.90
2018-10-04T07:15:15.173Z,5.47
2018-10-04T07:17:43.348Z,12.73
2018-10-04T07:20:11.938Z,4.97
2018-10-04T07:22:41.006Z,5.20
2018-10-04T07:25:09.169Z,9.23
2018-10-04T07:27:37.601Z,8.28
2018-10-04T07:30:06.090Z,8.35
2018-10-04T07:32:34.585Z,10.10
2018-10-04T07:35:03.096Z,8.98
2018-10-04T07:37:31.481Z,8.38
2018-10-04T07:39:59.895Z,13.50
2018-10-04T07:42:28.140Z,11.28
2018-10-04T07:44:56.539Z,9.28
2018-10-04T07:47:24.985Z,13.00
2018-10-04T07:49:53.096Z,15.13
2018-10-04T07:52:21.561Z,10.72
2018-10-04T07:54:49.673Z,13.35
2018-10-04T07:57:18.625Z,12.15
2018-10-04T07:59:47.034Z,10.40
2018-10-04T08:02:15.465Z,9.70
2018-10-04T08:04:43.878Z,11.22
2018-10-04T08:07:12.378Z,11.70
2018-10-04T08:09:40.778Z,13.83
2018-10-04T08:12:09.237Z,11.03
2018-10-04T08:14:37.724Z,12.90
2018-10-04T08:17:06.584Z,13.08
2018-10-04T08:19:34.992Z,17.80
2018-10-04T08:22:03.580Z,11.43
2018-10-04T08:24:32.015Z,12.03
2018-10-04T08:27:00.462Z,10.72
2018-10-04T08:29:28.925Z,10.30
2018-10-04T08:31:57.529Z,10.40
2018-10-04T08:34:25.985Z,12.78
2018-10-04T08:36:54.401Z,11.05
2018-10-04T08:39:22.801Z,8.45
2018-10-04T08:41:51.325Z,9.15
2018-10-04T08:44:19.768Z,9.65
2018-10-04T08:46:48.177Z,11.10
2018-10-04T08:49:16.622Z,9.03
2018-10-04T08:51:51.101Z,8.05
2018-10-04T08:54:25.294Z,8.00
2018-10-04T08:56:54.489Z,6.58
2018-10-04T08:59:23.648Z,8.28
2018-10-04T09:01:51.784Z,9.28
2018-10-04T09:04:20.252Z,7.35
2018-10-04T09:06:48.700Z,7.08
2018-10-04T09:09:17.216Z,6.25
2018-10-04T09:11:45.666Z,5.92
2018-10-04T09:14:14.114Z,8.03
2018-10-04T09:16:42.542Z,7.05
2018-10-04T09:19:11.009Z,7.33
2018-10-04T09:21:39.429Z,7.00
2018-10-04T09:24:08.205Z,6.65
2018-10-04T09:26:36.633Z,5.75
2018-10-04T09:29:12.333Z,5.45
2018-10-04T09:31:43.932Z,5.42
2018-10-04T09:34:12.401Z,4.75
2018-10-04T09:36:40.850Z,4.80
2018-10-04T09:39:10.956Z,5.65
2018-10-04T09:41:39.410Z,5.33
2018-10-04T09:44:07.853Z,3.83
2018-10-04T09:46:36.504Z,3.87
2018-10-04T09:49:04.978Z,3.25
2018-10-04T09:51:38.740Z,3.05
2018-10-04T09:54:07.259Z,3.95
2018-10-04T09:56:40.744Z,4.58
2018-10-04T09:59:09.216Z,5.03
2018-10-04T10:01:42.849Z,3.95
2018-10-04T10:04:11.365Z,3.58
2018-10-04T10:06:39.943Z,4.10
2018-10-04T10:09:08.685Z,4.72
2018-10-04T10:11:36.845Z,5.92
2018-10-04T10:14:05.397Z,4.97
2018-10-04T10:16:33.816Z,6.83
2018-10-04T10:19:02.316Z,5.92
2018-10-04T10:21:30.774Z,5.70
2018-10-04T10:23:59.247Z,5.65
2018-10-04T10:26:27.701Z,6.70
2018-10-04T10:28:56.209Z,6.25
2018-10-04T10:31:24.621Z,7.28
2018-10-04T10:33:53.050Z,5.67
2018-10-04T10:36:21.712Z,5.87
2018-10-04T10:38:49.852Z,7.35
2018-10-04T10:41:18.237Z,6.85
2018-10-04T10:43:46.673Z,5.78
2018-10-04T10:46:15.205Z,4.62
2018-10-04T10:48:43.690Z,5.05
2018-10-04T10:51:12.438Z,4.83
2018-10-04T10:53:40.545Z,4.85
2018-10-04T10:56:09.048Z,5.60
2018-10-04T10:58:37.463Z,3.40
2018-10-04T11:01:05.902Z,6.87
2018-10-04T11:03:34.397Z,6.45
2018-10-04T11:06:03.005Z,4.33
2018-10-04T11:08:31.469Z,6.17
2018-10-04T11:10:59.676Z,6.50
2018-10-04T11:13:28.084Z,4.25
2018-10-04T11:15:56.535Z,5.80
2018-10-04T11:18:24.978Z,4.50
2018-10-04T11:20:53.877Z,5.40
2018-10-04T11:23:22.302Z,3.58
2018-10-04T11:25:50.459Z,3.20
2018-10-04T11:28:18.592Z,3.80
2018-10-04T11:30:47.745Z,3.55
2018-10-04T11:33:16.224Z,4.03
2018-10-04T11:35:45.038Z,3.40
2018-10-04T11:38:14.396Z,3.35
2018-10-04T11:40:42.921Z,4.55
2018-10-04T11:43:13.369Z,3.75
2018-10-04T11:45:43.334Z,4.20
2018-10-04T11:48:17.924Z,5.72
2018-10-04T11:50:46.891Z,6.12
2018-10-04T11:53:15.845Z,3.70
2018-10-04T11:55:44.525Z,7.10
2018-10-04T11:58:13.040Z,3.37
2018-10-04T12:00:41.253Z,3.37
2018-10-04T12:03:10.237Z,3.47
2018-10-04T12:05:38.709Z,3.08
2018-10-04T12:08:08.560Z,3.15
2018-10-04T12:10:37.309Z,4.42
2018-10-04T12:13:05.902Z,3.33
2018-10-04T12:15:35.746Z,3.85
2018-10-04T12:18:03.896Z,5.72
2018-10-04T12:20:32.036Z,6.00
2018-10-04T12:23:00.500Z,3.60
2018-10-04T12:25:28.937Z,3.75
2018-10-04T12:27:57.612Z,4.95
2018-10-04T12:30:26.046Z,4.17
2018-10-04T12:32:54.472Z,5.00
2018-10-04T12:35:22.762Z,3.87
2018-10-04T12:37:50.875Z,7.87
2018-10-04T12:40:19.265Z,2.45
2018-10-04T12:42:47.721Z,3.20
2018-10-04T12:45:16.189Z,4.65
2018-10-04T12:47:45.361Z,4.55
2018-10-04T12:50:13.772Z,4.08
2018-10-04T12:52:42.721Z,3.50
2018-10-04T12:55:11.077Z,5.25
2018-10-04T12:57:39.564Z,5.22
2018-10-04T13:00:08.269Z,4.95
2018-10-04T13:02:36.993Z,5.05
2018-10-04T13:05:05.868Z,3.92
2018-10-04T13:07:34.269Z,4.12
2018-10-04T13:10:02.727Z,7.40
2018-10-04T13:12:31.182Z,6.53
2018-10-04T13:14:59.721Z,4.50
2018-10-04T13:17:28.545Z,2.92
2018-10-04T13:19:57.328Z,4.10
2018-10-04T13:22:25.521Z,5.50
2018-10-04T13:24:53.653Z,4.53
2018-10-04T13:27:22.319Z,4.22
2018-10-04T13:29:50.401Z,4.35
2018-10-04T13:32:19.001Z,3.83
2018-10-04T13:34:47.746Z,3.52
2018-10-04T13:37:16.578Z,5.65
2018-10-04T13:39:44.689Z,7.90
2018-10-04T13:42:12.881Z,4.53
2018-10-04T13:44:42.003Z,5.70
2018-10-04T13:47:10.764Z,5.25
2018-10-04T13:49:39.180Z,3.58
2018-10-04T13:52:07.443Z,4.72
2018-10-04T13:54:35.888Z,5.58
2018-10-04T13:57:04.477Z,4.15
2018-10-04T13:59:32.873Z,4.50
2018-10-04T14:02:35.075Z,2.58
2018-10-04T14:05:14.132Z,2.15
2018-10-04T14:07:42.719Z,3.30
2018-10-04T14:10:11.226Z,4.97
2018-10-04T14:13:18.877Z,5.08
2018-10-04T14:15:47.330Z,5.17
2018-10-04T14:18:15.850Z,5.15
2018-10-04T14:20:44.312Z,6.08
2018-10-04T14:23:12.736Z,8.68
2018-10-04T14:25:40.828Z,7.58
2018-10-04T14:28:09.240Z,4.95
2018-10-04T14:30:37.652Z,6.70
2018-10-04T14:33:05.823Z,8.65
2018-10-04T14:35:34.212Z,9.53
2018-10-04T14:38:03.281Z,6.22
2018-10-04T14:40:31.444Z,5.22
2018-10-04T14:43:00.051Z,4.95
2018-10-04T14:45:28.469Z,2.58
2018-10-04T14:47:56.929Z,3.37
2018-10-04T14:50:25.436Z,6.03
2018-10-04T14:52:53.917Z,6.65
2018-10-04T14:55:22.395Z,6.22
2018-10-04T14:57:50.829Z,6.47
2018-10-04T15:00:18.982Z,7.10
2018-10-04T15:02:47.576Z,3.33
2018-10-04T15:05:16.010Z,2.70
2018-10-04T15:07:44.934Z,3.08
2018-10-04T15:10:13.411Z,4.47
2018-10-04T15:12:43.224Z,3.35
2018-10-04T15:15:11.626Z,4.35
2018-10-04T15:17:39.802Z,2.33
2018-10-04T15:20:08.308Z,5.37
2018-10-04T15:22:36.518Z,3.62
2018-10-04T15:25:04.895Z,4.42
2018-10-04T15:27:33.350Z,5.20
2018-10-04T15:30:02.045Z,6.65
2018-10-04T15:32:30.697Z,4.12
2018-10-04T15:34:58.864Z,7.33
2018-10-04T15:37:26.973Z,2.08
2018-10-04T15:39:55.567Z,5.03
2018-10-04T15:42:24.493Z,3.25
2018-10-04T15:44:52.644Z,3.60
2018-10-04T15:47:21.114Z,3.08
2018-10-04T15:49:49.696Z,3.05
2018-10-04T15:52:18.537Z,2.95
2018-10-04T15:54:46.761Z,4.05
2018-10-04T15:57:15.713Z,3.02
2018-10-04T15:59:43.879Z,6.35
2018-10-04T16:02:12.802Z,5.05
2018-10-04T16:04:41.331Z,4.45
2018-10-04T16:07:09.705Z,4.00
2018-10-04T16:09:38.273Z,5.40
2018-10-04T16:12:07.191Z,5.15
2018-10-04T16:14:35.892Z,4.47
2018-10-04T16:17:04.088Z,3.70
2018-10-04T16:19:32.217Z,5.17
2018-10-04T16:22:00.753Z,2.65
2018-10-04T16:24:29.202Z,3.95
2018-10-04T16:26:57.735Z,11.48
2018-10-04T16:29:26.231Z,6.67
2018-10-04T16:31:54.800Z,3.02
2018-10-04T16:34:23.381Z,4.78
2018-10-04T16:36:51.840Z,4.70
2018-10-04T16:39:20.313Z,5.33
2018-10-04T16:41:48.400Z,3.50
2018-10-04T16:44:17.231Z,6.28
2018-10-04T16:46:45.415Z,6.85
2018-10-04T16:49:13.669Z,4.15
2018-10-04T16:51:42.464Z,5.65
2018-10-04T16:54:11.733Z,6.53
2018-10-04T16:56:40.222Z,3.92
2018-10-04T16:59:08.736Z,6.20
2018-10-04T17:01:37.214Z,4.17
2018-10-04T17:04:05.721Z,3.70
2018-10-04T17:06:34.185Z,8.48
2018-10-04T17:09:02.340Z,4.97
2018-10-04T17:11:30.781Z,6.70
2018-10-04T17:13:59.225Z,6.08
2018-10-04T17:16:27.661Z,5.15
2018-10-04T17:18:56.109Z,5.37
2018-10-04T17:21:24.546Z,5.53
2018-10-04T17:23:52.948Z,4.95
2018-10-04T17:26:21.389Z,5.70
2018-10-04T17:28:49.778Z,5.37
2018-10-04T17:31:18.213Z,4.97
2018-10-04T17:33:46.868Z,5.67
2018-10-04T17:36:15.309Z,4.62
2018-10-04T17:38:44.249Z,4.37
2018-10-04T17:41:12.717Z,6.00
2018-10-04T17:43:41.179Z,4.37
2018-10-04T17:46:09.709Z,3.60
2018-10-04T17:48:38.152Z,5.90
2018-10-04T17:51:06.577Z,5.60
2018-10-04T17:53:35.029Z,3.77
2018-10-04T17:56:03.468Z,5.70
2018-10-04T17:58:31.941Z,4.40
2018-10-04T18:01:01.590Z,6.22
2018-10-04T18:03:30.609Z,4.92
2018-10-04T18:05:59.838Z,5.33
2018-10-04T18:08:28.230Z,5.67
2018-10-04T18:10:56.750Z,5.17
2018-10-04T18:13:25.145Z,4.33
2018-10-04T18:15:53.533Z,7.12
2018-10-04T18:18:22.104Z,5.90
2018-10-04T18:20:50.261Z,8.93
2018-10-04T18:23:18.722Z,8.23
2018-10-04T18:25:47.143Z,7.15
2018-10-04T18:28:15.604Z,5.40
2018-10-04T18:30:44.001Z,9.35
2018-10-04T18:33:12.425Z,6.08
2018-10-04T18:35:40.820Z,6.47
2018-10-04T18:38:09.450Z,11.57
2018-10-04T18:40:37.928Z,5.62
2018-10-04T18:43:06.445Z,3.90
2018-10-04T18:45:34.900Z,6.05
2018-10-04T18:48:03.785Z,4.55
2018-10-04T18:50:32.331Z,9.10
2018-10-04T18:53:00.789Z,6.97
2018-10-04T18:55:29.314Z,5.08
2018-10-04T18:57:58.253Z,6.28
2018-10-04T19:00:26.913Z,6.87
2018-10-04T19:02:55.365Z,4.30
2018-10-04T19:05:23.841Z,9.68
2018-10-04T19:07:52.289Z,5.70
2018-10-04T19:10:20.736Z,6.25
2018-10-04T19:12:49.229Z,9.70
2018-10-04T19:15:18.013Z,5.83
2018-10-04T19:17:46.186Z,5.15
2018-10-04T19:20:14.594Z,7.00
2018-10-04T19:22:43.074Z,7.03
2018-10-04T19:25:11.234Z,4.12
2018-10-04T19:27:39.844Z,5.03
2018-10-04T19:30:08.054Z,4.22
2018-10-04T19:32:36.497Z,7.40
2018-10-04T19:35:04.939Z,6.22
2018-10-04T19:37:33.431Z,5.75
2018-10-04T19:40:01.824Z,11.28
2018-10-04T19:42:30.707Z,5.40
2018-10-04T19:44:59.334Z,7.78
2018-10-04T19:47:27.754Z,5.37
2018-10-04T19:49:55.892Z,10.13
2018-10-04T19:52:24.553Z,6.45
2018-10-04T19:54:53.174Z,7.53
2018-10-04T19:57:22.058Z,7.00
2018-10-04T19:59:51.252Z,5.07
2018-10-04T20:02:19.587Z,5.95
2018-10-04T20:04:48.254Z,7.47
2018-10-04T20:07:16.651Z,5.42
2018-10-04T20:09:51.533Z,7.30
2018-10-04T20:12:20.081Z,8.63
2018-10-04T20:14:48.589Z,5.45
2018-10-04T20:17:17.169Z,9.95
2018-10-04T20:19:45.345Z,8.38
2018-10-04T20:22:15.516Z,10.55
2018-10-04T20:24:44.661Z,9.08
2018-10-04T20:27:14.553Z,7.70
2018-10-04T20:29:42.805Z,8.40
2018-10-04T20:32:10.954Z,8.70
2018-10-04T20:34:39.709Z,10.07
2018-10-04T20:37:08.157Z,10.70
2018-10-04T20:39:36.606Z,6.20
2018-10-04T20:42:05.472Z,6.63
2018-10-04T20:44:33.685Z,6.73
2018-10-04T20:47:02.094Z,4.73
2018-10-04T20:49:31.545Z,4.70
2018-10-04T20:51:59.696Z,8.90
2018-10-04T20:54:27.853Z,7.70
2018-10-04T20:56:55.968Z,5.67
2018-10-04T20:59:24.396Z,4.13
2018-10-04T21:01:52.801Z,7.03
2018-10-04T21:04:21.232Z,4.03
2018-10-04T21:06:49.629Z,6.73
2018-10-04T21:09:18.073Z,5.77
2018-10-04T21:11:46.534Z,3.33
2018-10-04T21:14:15.017Z,4.23
2018-10-04T21:16:43.490Z,5.27
2018-10-04T21:19:11.966Z,4.87
2018-10-04T21:21:40.621Z,4.33
2018-10-04T21:24:09.064Z,8.67
2018-10-04T21:26:37.144Z,4.33
2018-10-04T21:29:05.421Z,7.37
2018-10-04T21:31:33.845Z,7.97
2018-10-04T21:34:01.972Z,4.93
2018-10-04T21:36:30.393Z,5.27
2018-10-04T21:38:58.807Z,4.73
2018-10-04T21:41:27.217Z,5.97
2018-10-04T21:43:55.608Z,5.50
2018-10-04T21:46:24.097Z,5.03
2018-10-04T21:48:52.493Z,5.40
2018-10-04T21:51:20.938Z,5.17
2018-10-04T21:53:49.420Z,4.77
2018-10-04T21:56:18.289Z,3.57
2018-10-04T21:58:46.432Z,6.10
2018-10-04T22:01:17.444Z,4.50
2018-10-04T22:03:46.637Z,4.70
2018-10-04T22:06:16.346Z,4.70
2018-10-04T22:08:44.769Z,7.93
2018-10-04T22:11:13.217Z,4.43
2018-10-04T22:13:41.330Z,7.67
2018-10-04T22:16:09.781Z,6.70
2018-10-04T22:18:38.280Z,5.03
2018-10-04T22:21:06.937Z,3.83
2018-10-04T22:23:35.364Z,10.57
2018-10-04T22:26:03.882Z,4.87
2018-10-04T22:28:32.385Z,4.90
2018-10-04T22:31:01.189Z,3.43
2018-10-04T22:33:29.624Z,10.07
2018-10-04T22:35:57.830Z,6.20
2018-10-04T22:38:26.754Z,6.60
2018-10-04T22:40:55.272Z,4.97
2018-10-04T22:43:23.681Z,9.57
2018-10-04T22:45:52.162Z,4.07
2018-10-04T22:48:20.590Z,6.57
2018-10-04T22:50:49.008Z,6.40
2018-10-04T22:53:17.821Z,7.43
2018-10-04T22:55:47.233Z,4.67
2018-10-04T22:58:16.558Z,4.10
2018-10-04T23:00:44.987Z,6.17
2018-10-04T23:03:13.386Z,7.20
2018-10-04T23:05:41.547Z,5.20
2018-10-04T23:08:09.954Z,9.33
2018-10-04T23:10:38.382Z,4.83
2018-10-04T23:13:08.567Z,7.43
2018-10-04T23:15:36.692Z,4.50
2018-10-04T23:18:05.193Z,4.87
2018-10-04T23:20:34.035Z,6.27
2018-10-04T23:23:02.244Z,3.27
2018-10-04T23:25:30.683Z,6.57
2018-10-04T23:27:59.121Z,3.93
2018-10-04T23:30:27.708Z,5.43
2018-10-04T23:32:56.133Z,3.37
2018-10-04T23:35:24.545Z,4.47
2018-10-04T23:37:53.905Z,4.50
2018-10-04T23:40:22.860Z,6.50
2018-10-04T23:42:51.341Z,4.10
2018-10-04T23:45:19.448Z,7.03
2018-10-04T23:47:48.337Z,6.57
2018-10-04T23:50:16.768Z,6.10
2018-10-04T23:52:44.973Z,3.37
2018-10-04T23:55:13.675Z,4.67
2018-10-04T23:57:42.141Z,4.20
